• Join FlightAware (Why Join?)
  • Login
  • US Flag 
04:01AM EST


 

Airport Tracker/Info


-or-


 

Live Flight TrackerFlight Track Log ✈ EJA929 ✈ 06-Jul-2013 ✈ KASE - KBUR

Flight Track Log - Related Links

Times and Time Zones

All times are in EDT time to prevent confusion due to time zone crossing. See the EJA929 flight status page for this flight to view local times or setup timezone preferences in your user account.

Time Position Orientation Groundspeed Altitude Reporting Facility
EDT Latitude Longitude Course Direction KTS MPH feet Rate Location/Type
12:13PM 39.2914 -106.9447 244° Southwest 253 291 12,500  Level Denver Center
12:14PM 39.3064 -107.0364 282° West 256 295 16,500 3,360 Climbing Denver Center
12:16PM 39.3369 -107.1192 296° West 252 290 19,600 2,040 Climbing Denver Center
12:17PM 39.3236 -107.2492 262° West 306 352 20,800 780 Climbing Denver Center
12:18PM 38.8625 -107.8439 245° Southwest  Level Estimated
12:18PM 39.3039 -107.3714 258° West 356 410 21,400  Level Denver Center
12:19PM 38.8106 -107.9825 244° Southwest  Level Estimated
12:19PM 39.2736 -107.5517 258° West 400 460 22,300  Level Denver Center
12:20PM 39.2539 -107.6647 257° West 404 465 23,300 1,140 Climbing Denver Center
12:21PM 39.2231 -107.8517 258° West 415 478 24,700 1,200 Climbing Denver Center
12:22PM 39.1986 -107.9931 257° West 419 482 25,900 1,140 Climbing Denver Center
12:23PM 39.1711 -108.1594 258° West 422 486 27,100 960 Climbing Denver Center
12:24PM 39.1456 -108.3053 257° West 432 497 28,000 960 Climbing Denver Center
12:25PM 39.1153 -108.4814 258° West 449 517 29,100 960 Climbing Denver Center
12:26PM 39.0875 -108.6308 257° West 447 514 30,100 960 Climbing Denver Center
12:27PM 39.0397 -108.7708 246° West 443 510 31,100 960 Climbing Denver Center
12:28PM 38.9803 -108.9367 245° Southwest 452 520 32,200 960 Climbing Denver Center
12:29PM 38.9278 -109.0803 245° Southwest 462 532 33,200 840 Climbing Denver Center
12:30PM 38.8661 -109.2472 245° Southwest 462 532 34,000 780 Climbing Denver Center
12:31PM 38.8136 -109.3936 245° Southwest 470 541 34,900 1,500 Climbing Denver Center
12:32PM 38.7542 -109.5542 245° Southwest 445 512 37,100 1,980 Climbing Denver Center
12:33PM 38.7053 -109.6861 245° Southwest 429 494 39,100 1,380 Climbing Denver Center
12:34PM 38.6475 -109.8408 244° Southwest 430 495 40,000 420 Climbing Denver Center
12:35PM 38.5956 -109.9775 244° Southwest 443 510 40,000  Level Denver Center
12:36PM 38.5336 -110.1450 245° Southwest 464 534 40,000  Level Denver Center
12:37PM 38.4792 -110.2864 244° Southwest 465 535 40,000  Level Denver Center
12:38PM 38.4261 -110.4300 245° Southwest 466 536 40,000  Level Salt Lake Center
12:39PM 38.3722 -110.5725 244° Southwest 467 537 40,000  Level Salt Lake Center
12:40PM 38.3081 -110.7392 244° Southwest 468 539 40,000  Level Salt Lake Center
12:41PM 38.2528 -110.8814 244° Southwest 468 539 40,000  Level Salt Lake Center
12:43PM 38.1917 -111.0428 244° Southwest 468 539 40,000  Level Salt Lake Center
12:44PM 38.1325 -111.1906 243° Southwest 469 540 40,000  Level Salt Lake Center
12:45PM 38.0736 -111.3403 243° Southwest 474 545 40,000  Level Salt Lake Center
12:46PM 38.0156 -111.4892 244° Southwest 473 544 40,000  Level Salt Lake Center
12:47PM 37.9453 -111.6686 244° Southwest 474 545 40,000  Level Salt Lake Center
12:48PM 37.8844 -111.8194 243° Southwest 479 551 40,000  Level Salt Lake Center
12:49PM 37.8250 -111.9700 243° Southwest 480 552 40,000  Level Salt Lake Center
12:50PM 37.7647 -112.1194 243° Southwest 478 550 40,000  Level Salt Lake Center
12:51PM 37.7042 -112.2700 243° Southwest 480 552 40,000  Level Salt Lake Center
12:52PM 37.6261 -112.4067 234° Southwest 478 550 40,000  Level Salt Lake Center
12:53PM 37.5406 -112.5367 230° Southwest 479 551 40,000  Level Salt Lake Center
12:54PM 37.4542 -112.6678 230° Southwest 478 550 40,000  Level Salt Lake Center
12:55PM 37.3489 -112.8286 231° Southwest 486 559 40,000  Level Salt Lake Center
12:56PM 37.2808 -112.9350 231° Southwest 486 559 40,000  Level Los Angeles Center
12:57PM 37.1964 -113.0658 231° Southwest 481 554 40,000  Level Los Angeles Center
12:58PM 37.0950 -113.2208 231° Southwest 479 551 40,000  Level Los Angeles Center
12:59PM 37.0100 -113.3503 231° Southwest 480 552 40,000  Level Los Angeles Center
01:00PM 36.9253 -113.4800 231° Southwest 481 554 40,000  Level Los Angeles Center
01:01PM 36.8406 -113.6097 231° Southwest 481 554 40,000  Level Los Angeles Center
01:02PM 36.7372 -113.7642 230° Southwest 484 557 40,000  Level Los Angeles Center
01:03PM 36.6519 -113.8942 231° Southwest 485 558 40,000  Level Los Angeles Center
01:04PM 36.5642 -114.0233 230° Southwest 489 563 40,000  Level Los Angeles Center
01:05PM 36.4722 -114.1617 230° Southwest 487 560 40,000  Level Los Angeles Center
01:06PM 36.3861 -114.2906 230° Southwest 485 558 40,000  Level Los Angeles Center
01:08PM 36.2975 -114.4194 230° Southwest 488 562 40,000  Level Los Angeles Center
01:09PM 36.1919 -114.5758 230° Southwest 491 565 40,000  Level Los Angeles Center
01:10PM 36.1031 -114.7042 229° Southwest 489 563 40,000  Level Los Angeles Center
01:11PM 36.0139 -114.8339 230° Southwest 490 564 40,000  Level Los Angeles Center
01:12PM 35.9050 -114.9836 228° Southwest 487 560 40,000 -240 Level Los Angeles Center
01:13PM 35.8128 -115.1086 228° Southwest 489 563 39,600 -1,200 Descending Los Angeles Center
01:14PM 35.7217 -115.2344 228° Southwest 490 564 37,600 -1,800 Descending Los Angeles Center
01:15PM 35.6294 -115.3597 228° Southwest 491 565 36,000 -780 Descending Los Angeles Center
01:16PM 35.5372 -115.4839 228° Southwest 490 564 36,000  Level Los Angeles Center
01:17PM 35.4381 -115.6161 227° Southwest 492 566 36,000  Level Los Angeles Center
01:18PM 35.3458 -115.7389 227° Southwest 490 564 36,000  Level Los Angeles Center
01:19PM 35.2514 -115.8636 227° Southwest 497 572 36,000 -1,140 Level Los Angeles Center
01:20PM 35.1586 -115.9867 227° Southwest 494 568 33,700 -2,400 Descending Los Angeles Center
01:21PM 35.0658 -116.1092 227° Southwest 492 566 31,100 -2,820 Descending Los Angeles Center
01:22PM 34.9550 -116.2564 227° Southwest 491 565 27,900 -2,820 Descending Los Angeles Center
01:23PM 34.8614 -116.3783 227° Southwest 492 566 25,300 -1,980 Descending Los Angeles Center
01:24PM 34.7947 -116.5103 238° Southwest 468 539 23,800 -1,560 Descending Los Angeles Center
01:25PM 34.7944 -116.6650 270° West 461 531 22,100 -1,800 Descending Los Angeles Center
01:26PM 34.8164 -116.8217 280° West 472 543 20,200 -1,020 Descending Los Angeles Center
01:27PM 34.8431 -116.9769 282° West 470 541 20,000 -120 Descending Los Angeles Center
01:28PM 34.8311 -117.1569 265° West 449 517 20,000 -660 Level Los Angeles Center
01:29PM 34.7981 -117.2975 254° West 431 496 18,700 -1,260 Descending Los Angeles Center
01:30PM 34.7617 -117.4406 253° West 437 503 17,400 -1,200 Descending Los Angeles Center
01:31PM 34.7264 -117.5811 253° West 432 497 16,300 -1,020 Descending Los Angeles Center
01:33PM 34.6900 -117.7203 252° West 431 496 15,100 -1,140 Descending Los Angeles Center
01:34PM 34.6508 -117.8872 254° West 425 489 13,800 -1,020 Descending Los Angeles Center
01:35PM 34.6358 -118.0258 263° West 415 478 13,000 -1,080 Descending Los Angeles Center
01:36PM 34.6108 -118.1639 258° West 374 430 11,600 -1,620 Descending Los Angeles Center
01:37PM 34.5886 -118.2603 254° West 302 348 9,700 -1,800 Descending Los Angeles Center
01:38PM 34.5636 -118.3683 254° West 279 321 8,000 -840 Descending Los Angeles Center
01:39PM 34.5439 -118.4578 255° West 277 319 8,000 -120 Level Los Angeles Center
01:40PM 34.5147 -118.5431 247° West 285 328 7,800 -960 Descending Los Angeles Center
01:41PM 34.4475 -118.5803 205° Southwest 268 308 6,100 -1,380 Descending Los Angeles Center
01:42PM 34.3778 -118.6003 193° South 264 304 5,000 -540 Descending Los Angeles Center
01:43PM 34.3031 -118.5903 174° South 266 306 5,000 -180 Level Los Angeles Center
01:44PM 34.2122 -118.5744 172° South 274 315 4,700 -1,140 Descending Los Angeles Center
01:45PM 34.2006 -118.4961 100° East 274 315 2,700 -1,500 Descending Los Angeles Center
01:46PM 34.1983 -118.4283 92° East 220 253 1,700 -840 Descending Los Angeles Center
01:47PM 34.1992 -118.3847 89° East 166 191 1,000 -720 Descending Los Angeles Center
01:49PM 34.2000 -118.3500 90° East  Level FlightAware Approximate
01:56PM 34.2007 -118.3587 90° East  Level Estimated